Time;durP1;ratioP1;P1;durP2;ratioP2;P2;SDS_P1;SDS_P2;PMS_P1;PMS_P2;Temp;Humidity;BMP_temperature;BMP_pressure;BME280_temperature;BME280_humidity;BME280_pressure;Samples;Min_cycle;Max_cycle;Signal;HPM_P1;HPM_P2
2023/05/20 00:01:00;;;;;;;10.32;5.13;;;;;;;11.80;100.00;102282.84;5242159;28;20497;-72
2023/05/20 00:03:30;;;;;;;10.93;4.78;;;;;;;11.79;100.00;102281.97;5243463;28;20029;-72
2023/05/20 00:06:01;;;;;;;9.88;5.47;;;;;;;11.79;100.00;102284.66;5230649;28;20025;-73
2023/05/20 00:08:31;;;;;;;10.98;4.57;;;;;;;11.78;100.00;102279.44;5242612;28;20032;-72
2023/05/20 00:11:02;;;;;;;8.35;4.63;;;;;;;11.79;100.00;102289.19;5242925;28;20474;-73
2023/05/20 00:13:34;;;;;;;8.60;4.35;;;;;;;11.77;100.00;102285.81;5246945;28;20025;-73
2023/05/20 00:16:05;;;;;;;10.93;4.43;;;;;;;11.75;100.00;102279.72;5246364;28;20620;-73
2023/05/20 00:18:35;;;;;;;8.23;3.95;;;;;;;11.74;100.00;102278.84;5246742;28;20103;-73
2023/05/20 00:21:06;;;;;;;8.65;4.25;;;;;;;11.74;100.00;102278.00;5242797;28;20024;-73
2023/05/20 00:23:36;;;;;;;10.63;4.30;;;;;;;11.74;100.00;102280.69;5246514;28;20370;-73
2023/05/20 00:26:07;;;;;;;9.23;4.35;;;;;;;11.72;100.00;102282.69;5246211;28;20028;-72
2023/05/20 00:28:38;;;;;;;8.60;4.03;;;;;;;11.73;100.00;102284.38;5246752;28;20525;-73
2023/05/20 00:31:08;;;;;;;7.03;3.90;;;;;;;11.72;100.00;102275.47;5246503;28;20020;-73
2023/05/20 00:33:39;;;;;;;8.93;4.43;;;;;;;11.76;100.00;102279.59;5228250;28;20036;-73
2023/05/20 00:36:09;;;;;;;11.30;4.10;;;;;;;11.77;100.00;102277.75;5245757;28;20036;-72
2023/05/20 00:38:39;;;;;;;6.78;3.60;;;;;;;11.76;100.00;102266.13;5247099;28;20082;-73
2023/05/20 00:41:10;;;;;;;8.35;3.22;;;;;;;11.76;100.00;102271.50;5237496;28;20013;-73
2023/05/20 00:43:41;;;;;;;7.47;3.47;;;;;;;11.77;100.00;102265.13;5246607;28;20141;-73
2023/05/20 00:46:12;;;;;;;6.70;3.53;;;;;;;11.77;100.00;102265.13;5246275;28;20051;-72
2023/05/20 00:48:43;;;;;;;7.72;3.60;;;;;;;11.74;100.00;102276.16;5246046;28;20036;-72
2023/05/20 00:51:14;;;;;;;7.60;3.47;;;;;;;11.76;100.00;102274.19;5246299;28;20081;-72
2023/05/20 00:53:45;;;;;;;8.85;3.40;;;;;;;11.76;100.00;102270.66;5239766;28;20028;-72
2023/05/20 00:56:16;;;;;;;9.70;3.80;;;;;;;11.75;100.00;102261.75;5235707;28;20025;-72
2023/05/20 00:58:47;;;;;;;9.32;3.33;;;;;;;11.74;100.00;102269.94;5238824;28;20025;-72
2023/05/20 01:01:18;;;;;;;8.93;3.50;;;;;;;11.75;100.00;102260.91;5237163;28;20025;-72
2023/05/20 01:03:48;;;;;;;7.70;3.03;;;;;;;11.71;100.00;102265.69;5246518;28;20023;-72
2023/05/20 01:06:19;;;;;;;8.90;3.28;;;;;;;11.70;100.00;102263.13;5245565;28;20024;-72
2023/05/20 01:08:49;;;;;;;5.97;3.33;;;;;;;11.65;100.00;102271.63;5246037;28;20089;-72
2023/05/20 01:11:25;;;;;;;8.27;3.25;;;;;;;11.60;100.00;102261.31;5246066;28;20016;-73
2023/05/20 01:14:01;;;;;;;6.20;3.58;;;;;;;11.56;100.00;102259.88;5236515;28;20547;-73
2023/05/20 01:16:34;;;;;;;6.15;3.20;;;;;;;11.57;100.00;102260.72;5242551;28;20020;-72
2023/05/20 01:19:20;;;;;;;10.27;4.00;;;;;;;11.56;100.00;102259.03;5245928;28;20024;-72
2023/05/20 01:21:53;;;;;;;9.18;3.40;;;;;;;11.52;100.00;102266.50;5243188;28;20035;-72
2023/05/20 01:24:23;;;;;;;6.05;3.38;;;;;;;11.48;100.00;102270.44;5244540;28;20020;-72
2023/05/20 01:26:56;;;;;;;9.60;3.58;;;;;;;11.45;100.00;102268.06;5234711;28;20471;-72
2023/05/20 01:29:27;;;;;;;10.85;3.85;;;;;;;11.41;100.00;102258.56;5243438;28;20028;-72
2023/05/20 01:32:00;;;;;;;8.35;4.05;;;;;;;11.35;100.00;102270.72;5245608;28;20024;-72
2023/05/20 01:34:32;;;;;;;12.20;3.72;;;;;;;11.32;100.00;102264.75;5244943;28;20021;-72
2023/05/20 01:37:04;;;;;;;9.57;4.20;;;;;;;11.29;100.00;102263.19;5244922;28;20434;-72
2023/05/20 01:39:40;;;;;;;7.40;3.90;;;;;;;11.27;100.00;102259.78;5243604;28;20377;-72
2023/05/20 01:42:12;;;;;;;8.80;3.75;;;;;;;11.25;100.00;102251.03;5241651;28;20024;-73
2023/05/20 01:44:43;;;;;;;9.68;4.40;;;;;;;11.21;100.00;102251.44;5245107;28;20031;-72
2023/05/20 01:47:14;;;;;;;10.90;3.85;;;;;;;11.22;100.00;102251.28;5244381;28;20416;-72
2023/05/20 01:49:45;;;;;;;10.18;4.20;;;;;;;11.18;100.00;102252.53;5245416;28;20030;-72
2023/05/20 01:52:15;;;;;;;10.18;4.00;;;;;;;11.16;100.00;102251.84;5245604;28;20027;-72
2023/05/20 01:54:49;;;;;;;7.72;3.40;;;;;;;11.12;100.00;102251.25;5240538;28;20025;-72
2023/05/20 01:57:21;;;;;;;9.43;3.85;;;;;;;11.09;100.00;102254.22;5244305;28;20028;-72
2023/05/20 01:59:52;;;;;;;10.70;4.00;;;;;;;11.07;100.00;102248.13;5231781;28;20079;-72
2023/05/20 02:02:23;;;;;;;13.35;3.70;;;;;;;11.05;100.00;102244.75;5245214;28;20055;-72
2023/05/20 02:04:54;;;;;;;11.57;4.03;;;;;;;11.02;100.00;102236.09;5243791;28;20142;-72
2023/05/20 02:07:25;;;;;;;9.68;3.63;;;;;;;11.01;100.00;102234.41;5244548;28;20040;-72
2023/05/20 02:09:55;;;;;;;9.07;4.07;;;;;;;10.98;100.00;102232.81;5244501;28;20481;-72
2023/05/20 02:12:26;;;;;;;16.00;4.43;;;;;;;10.95;100.00;102233.09;5245343;28;20025;-72
2023/05/20 02:14:57;;;;;;;10.70;4.15;;;;;;;10.91;100.00;102242.41;5226307;28;20492;-72
2023/05/20 02:17:42;;;;;;;11.38;4.05;;;;;;;10.89;100.00;102244.34;5237720;28;20046;-72
2023/05/20 02:20:13;;;;;;;13.38;4.63;;;;;;;10.84;100.00;102244.78;5243820;28;20027;-73
2023/05/20 02:22:43;;;;;;;16.60;4.97;;;;;;;10.81;100.00;102236.16;5231112;28;20025;-72
2023/05/20 02:25:14;;;;;;;9.70;4.10;;;;;;;10.80;100.00;102237.97;5244415;28;20576;-72
2023/05/20 02:27:44;;;;;;;8.90;4.30;;;;;;;10.78;100.00;102234.56;5244186;28;20016;-72
2023/05/20 02:30:16;;;;;;;10.90;4.63;;;;;;;10.76;100.00;102239.22;5245172;28;20043;-73
2023/05/20 02:32:46;;;;;;;11.00;4.35;;;;;;;10.74;100.00;102235.81;5243927;28;20663;-72
2023/05/20 02:35:17;;;;;;;18.38;5.28;;;;;;;10.71;100.00;102232.56;5243849;28;20032;-72
2023/05/20 02:37:47;;;;;;;12.45;4.65;;;;;;;10.66;100.00;102235.66;5226139;28;20024;-72
2023/05/20 02:40:18;;;;;;;10.82;4.47;;;;;;;10.61;100.00;102238.72;5237937;28;20032;-72
2023/05/20 02:42:48;;;;;;;11.80;4.65;;;;;;;10.60;100.00;102237.03;5244254;28;20099;-72
2023/05/20 02:45:19;;;;;;;9.10;4.18;;;;;;;10.57;100.00;102239.13;5243640;28;20081;-72
2023/05/20 02:47:49;;;;;;;11.70;4.55;;;;;;;10.54;100.00;102242.94;5244620;28;20025;-72
2023/05/20 02:50:20;;;;;;;15.50;5.88;;;;;;;10.51;100.00;102242.34;5244397;28;20047;-72
2023/05/20 02:52:50;;;;;;;9.23;4.45;;;;;;;10.49;100.00;102234.44;5242731;28;20051;-72
2023/05/20 02:55:22;;;;;;;12.90;6.30;;;;;;;10.46;100.00;102231.16;5241853;28;20016;-72
2023/05/20 02:57:52;;;;;;;11.38;4.63;;;;;;;10.45;100.00;102229.47;5243587;28;20055;-72
2023/05/20 03:00:23;;;;;;;12.30;5.30;;;;;;;10.45;100.00;102221.41;5231155;28;20028;-72
2023/05/20 03:02:53;;;;;;;9.57;4.65;;;;;;;10.44;100.00;102227.72;5243430;28;20085;-72
2023/05/20 03:05:26;;;;;;;10.70;4.57;;;;;;;10.42;100.00;102224.34;5229870;28;20028;-72
2023/05/20 03:07:56;;;;;;;22.00;5.25;;;;;;;10.40;100.00;102229.84;5241261;28;20099;-72
2023/05/20 03:10:27;;;;;;;12.43;5.57;;;;;;;10.39;100.00;102236.16;5232447;28;20028;-72
2023/05/20 03:12:57;;;;;;;13.93;5.53;;;;;;;10.36;100.00;102229.25;5243723;28;20020;-72
2023/05/20 03:15:28;;;;;;;18.35;5.18;;;;;;;10.32;100.00;102224.28;5243521;28;20458;-72
2023/05/20 03:17:58;;;;;;;13.05;5.60;;;;;;;10.30;100.00;102229.78;5243173;28;20024;-72
2023/05/20 03:20:31;;;;;;;16.42;5.78;;;;;;;10.26;100.00;102228.34;5243372;28;20532;-72
2023/05/20 03:23:02;;;;;;;16.05;5.90;;;;;;;10.23;100.00;102230.38;5229969;28;20028;-73
2023/05/20 03:25:33;;;;;;;15.52;5.72;;;;;;;10.20;100.00;102231.50;5243598;28;20065;-72
2023/05/20 03:28:05;;;;;;;15.50;5.78;;;;;;;10.16;100.00;102234.59;5243204;28;20580;-72
2023/05/20 03:30:35;;;;;;;11.55;6.03;;;;;;;10.17;100.00;102231.75;5243502;28;20024;-73
2023/05/20 03:33:06;;;;;;;15.98;5.85;;;;;;;10.17;100.00;102222.88;5235437;28;20474;-72
2023/05/20 03:35:36;;;;;;;9.35;5.78;;;;;;;10.13;100.00;102235.69;5237489;28;20021;-73
2023/05/20 03:38:07;;;;;;;12.32;5.35;;;;;;;10.13;100.00;102227.63;5243473;28;20089;-72
2023/05/20 03:40:37;;;;;;;15.10;5.88;;;;;;;10.13;100.00;102233.84;5235740;28;20028;-72
2023/05/20 03:43:08;;;;;;;9.13;5.80;;;;;;;10.18;100.00;102235.28;5243586;28;20024;-72
2023/05/20 03:45:38;;;;;;;15.65;5.80;;;;;;;10.16;100.00;102224.69;5243246;28;20021;-72
2023/05/20 03:48:09;;;;;;;13.63;6.32;;;;;;;10.12;100.00;102226.78;5247293;28;20021;-72
2023/05/20 03:50:40;;;;;;;15.50;6.20;;;;;;;10.13;100.00;102236.53;5247573;28;20058;-72
2023/05/20 03:53:10;;;;;;;11.98;5.70;;;;;;;10.11;100.00;102235.81;5242757;28;20436;-72
2023/05/20 03:55:41;;;;;;;14.35;6.28;;;;;;;10.10;100.00;102230.59;5246730;28;20035;-72
2023/05/20 03:58:12;;;;;;;20.83;7.20;;;;;;;10.09;100.00;102231.53;5246680;28;20036;-72
2023/05/20 04:00:43;;;;;;;17.65;6.68;;;;;;;10.09;100.00;102226.19;5247344;28;20085;-72
2023/05/20 04:03:14;;;;;;;18.70;5.95;;;;;;;10.09;100.00;102234.22;5247153;28;20021;-72
2023/05/20 04:05:45;;;;;;;11.00;5.75;;;;;;;10.07;100.00;102237.03;5237130;28;20613;-72
2023/05/20 04:08:17;;;;;;;15.45;6.00;;;;;;;10.08;100.00;102236.06;5243126;28;20020;-73
2023/05/20 04:10:48;;;;;;;15.27;6.10;;;;;;;10.10;100.00;102242.16;5246793;28;20028;-72
2023/05/20 04:13:18;;;;;;;20.02;6.25;;;;;;;10.12;100.00;102240.19;5247148;28;20024;-72
2023/05/20 04:15:50;;;;;;;12.43;5.28;;;;;;;10.15;100.00;102239.09;5246340;28;20040;-72
2023/05/20 04:18:20;;;;;;;18.42;6.28;;;;;;;10.15;100.00;102232.88;5247233;28;20027;-72
2023/05/20 04:20:55;;;;;;;17.45;6.55;;;;;;;10.17;100.00;102236.28;5243266;28;20016;-72
2023/05/20 04:23:25;;;;;;;14.57;5.97;;;;;;;10.21;100.00;102229.69;5226013;28;20024;-73
2023/05/20 04:26:01;;;;;;;17.70;6.22;;;;;;;10.25;100.00;102233.84;5225752;28;20024;-72
2023/05/20 04:28:31;;;;;;;11.77;6.25;;;;;;;10.29;100.00;102229.88;5226264;28;20123;-72
2023/05/20 04:31:03;;;;;;;14.68;6.40;;;;;;;10.36;100.00;102233.78;5243439;28;20024;-72
2023/05/20 04:33:36;;;;;;;20.33;6.60;;;;;;;10.42;100.00;102240.44;5246425;28;20093;-72
2023/05/20 04:36:10;;;;;;;19.23;6.70;;;;;;;10.49;100.00;102238.91;5246126;28;20028;-72
2023/05/20 04:38:43;;;;;;;11.18;5.35;;;;;;;10.55;100.00;102243.78;5246595;28;20104;-72
2023/05/20 04:41:14;;;;;;;14.40;6.35;;;;;;;10.62;100.00;102240.41;5239177;28;20307;-72
2023/05/20 04:43:45;;;;;;;15.48;5.97;;;;;;;10.71;100.00;102240.63;5246717;28;20032;-73
2023/05/20 04:46:15;;;;;;;17.08;6.15;;;;;;;10.79;100.00;102236.28;5245884;28;20033;-72
2023/05/20 04:48:46;;;;;;;13.15;5.78;;;;;;;10.86;100.00;102233.91;5232936;28;20059;-72
2023/05/20 04:51:17;;;;;;;14.93;6.57;;;;;;;10.96;100.00;102233.97;5246715;28;20482;-72
2023/05/20 04:53:49;;;;;;;9.98;6.10;;;;;;;11.02;100.00;102236.09;5240828;28;20375;-72
2023/05/20 04:56:20;;;;;;;12.48;5.75;;;;;;;11.10;100.00;102234.44;5233977;28;20036;-72
2023/05/20 04:58:50;;;;;;;13.88;5.70;;;;;;;11.14;100.00;102222.44;5238914;28;20025;-72
2023/05/20 05:01:21;;;;;;;17.65;6.28;;;;;;;11.22;100.00;102220.91;5225470;28;20437;-72
2023/05/20 05:03:51;;;;;;;15.88;6.35;;;;;;;11.25;100.00;102215.25;5245527;28;20018;-72
2023/05/20 05:06:22;;;;;;;13.35;6.30;;;;;;;11.32;100.00;102213.72;5232170;28;20017;-72
2023/05/20 05:08:52;;;;;;;12.80;6.63;;;;;;;11.36;100.00;102204.41;5238035;28;20028;-73
2023/05/20 05:11:23;;;;;;;16.08;6.05;;;;;;;11.43;100.00;102215.44;5240333;28;20059;-72
2023/05/20 05:13:54;;;;;;;12.70;6.57;;;;;;;11.50;100.00;102211.22;5245997;28;20115;-72
2023/05/20 05:16:24;;;;;;;13.73;5.70;;;;;;;11.57;100.00;102199.75;5245425;28;20055;-73
2023/05/20 05:18:55;;;;;;;11.02;6.00;;;;;;;11.65;100.00;102207.97;5239745;28;20031;-73
2023/05/20 05:21:25;;;;;;;12.85;6.22;;;;;;;11.72;100.00;102197.50;5244194;28;20024;-72
2023/05/20 05:23:57;;;;;;;13.95;5.25;;;;;;;11.76;100.00;102216.91;5233604;28;20021;-72
2023/05/20 05:26:27;;;;;;;12.43;5.38;;;;;;;11.86;100.00;102212.41;5244723;28;20037;-72
2023/05/20 05:28:58;;;;;;;13.95;6.03;;;;;;;11.96;100.00;102213.25;5245848;28;20029;-72
2023/05/20 05:31:28;;;;;;;12.30;5.45;;;;;;;12.06;100.00;102215.94;5232864;28;20031;-72
2023/05/20 05:33:58;;;;;;;18.23;6.20;;;;;;;12.14;100.00;102213.34;5231610;28;20029;-72
2023/05/20 05:36:32;;;;;;;11.02;5.80;;;;;;;12.27;100.00;102210.38;5236570;28;20017;-73
2023/05/20 05:39:03;;;;;;;18.25;6.38;;;;;;;12.36;100.00;102209.53;5225393;28;20013;-72
2023/05/20 05:41:33;;;;;;;11.93;5.90;;;;;;;12.47;100.00;102220.13;5233383;28;20039;-72
2023/05/20 05:44:04;;;;;;;10.63;5.53;;;;;;;12.61;100.00;102218.81;5228666;28;20009;-72
2023/05/20 05:46:35;;;;;;;12.00;5.90;;;;;;;12.71;100.00;102222.31;5222710;28;20036;-72
2023/05/20 05:49:06;;;;;;;12.57;5.43;;;;;;;12.84;100.00;102214.75;5237493;28;20102;-72
2023/05/20 05:51:36;;;;;;;18.13;6.20;;;;;;;13.06;100.00;102216.22;5223917;28;20107;-73
2023/05/20 05:54:06;;;;;;;9.82;5.43;;;;;;;13.32;100.00;102218.25;5228493;28;20193;-73
2023/05/20 05:56:37;;;;;;;10.30;5.18;;;;;;;13.90;100.00;102210.56;5222844;28;20029;-72
2023/05/20 05:59:07;;;;;;;11.73;5.60;;;;;;;14.67;100.00;102210.84;5223064;28;20028;-73
2023/05/20 06:01:38;;;;;;;15.63;5.93;;;;;;;15.37;100.00;102216.06;5223724;28;20493;-73
2023/05/20 06:04:08;;;;;;;13.68;5.63;;;;;;;16.01;100.00;102214.47;5222845;28;20024;-73
2023/05/20 06:06:40;;;;;;;10.95;4.95;;;;;;;16.50;100.00;102212.59;5223025;28;20025;-74
2023/05/20 06:09:10;;;;;;;17.60;6.00;;;;;;;16.89;100.00;102217.25;5222525;28;20112;-73
2023/05/20 06:11:41;;;;;;;7.20;4.47;;;;;;;17.11;100.00;102203.97;5223602;28;20020;-73
2023/05/20 06:14:11;;;;;;;13.45;5.03;;;;;;;17.52;100.00;102196.44;5222720;28;20021;-73
2023/05/20 06:16:42;;;;;;;7.85;4.35;;;;;;;17.97;100.00;102200.22;5223147;28;20021;-74
2023/05/20 06:19:12;;;;;;;11.25;4.22;;;;;;;18.46;100.00;102197.06;5222906;28;20027;-73
2023/05/20 06:21:44;;;;;;;13.75;5.32;;;;;;;18.66;100.00;102190.03;5235550;28;20025;-73
2023/05/20 06:24:15;;;;;;;11.20;4.22;;;;;;;18.87;100.00;102192.03;5236664;28;20094;-73
2023/05/20 06:26:45;;;;;;;8.27;4.45;;;;;;;19.12;100.00;102185.25;5242789;28;20029;-73
2023/05/20 06:29:16;;;;;;;15.25;4.90;;;;;;;19.17;100.00;102194.72;5243224;28;20389;-74
2023/05/20 06:31:47;;;;;;;7.80;4.50;;;;;;;19.27;100.00;102195.25;5242947;28;20580;-73
2023/05/20 06:34:17;;;;;;;11.00;5.30;;;;;;;19.55;100.00;102181.78;5241963;28;20029;-74
2023/05/20 06:36:48;;;;;;;10.57;4.38;;;;;;;19.72;100.00;102185.09;5241737;28;20028;-73
2023/05/20 06:39:18;;;;;;;8.70;4.55;;;;;;;19.97;100.00;102174.66;5229280;28;20047;-73
2023/05/20 06:41:50;;;;;;;10.10;4.75;;;;;;;20.22;100.00;102170.47;5235223;28;20028;-74
2023/05/20 06:44:21;;;;;;;11.07;4.63;;;;;;;20.42;100.00;102174.16;5242066;28;20024;-73
2023/05/20 06:46:51;;;;;;;14.70;5.07;;;;;;;20.53;100.00;102171.97;5241082;28;20507;-74
2023/05/20 06:49:23;;;;;;;15.80;4.97;;;;;;;20.60;100.00;102167.41;5242616;28;20284;-73
2023/05/20 06:51:54;;;;;;;11.18;5.25;;;;;;;20.79;100.00;102166.69;5243180;28;20477;-73
2023/05/20 06:54:24;;;;;;;11.35;4.70;;;;;;;20.95;100.00;102174.53;5232901;28;20096;-73
2023/05/20 06:56:55;;;;;;;9.35;4.70;;;;;;;21.34;100.00;102175.75;5237859;28;20020;-73
2023/05/20 06:59:25;;;;;;;8.73;4.72;;;;;;;21.38;100.00;102170.69;5242250;28;20513;-74
2023/05/20 07:01:55;;;;;;;8.45;4.15;;;;;;;21.57;100.00;102160.88;5242361;28;20021;-73
2023/05/20 07:04:26;;;;;;;8.55;4.30;;;;;;;21.83;100.00;102160.91;5242086;28;20017;-74
2023/05/20 07:06:57;;;;;;;6.72;3.95;;;;;;;22.03;100.00;102166.38;5228368;28;20074;-73
2023/05/20 07:09:27;;;;;;;9.15;4.00;;;;;;;22.08;100.00;102163.84;5242355;28;20371;-74
2023/05/20 07:11:58;;;;;;;16.23;5.10;;;;;;;21.96;100.00;102152.72;5241928;28;20027;-73
2023/05/20 07:14:28;;;;;;;9.13;4.10;;;;;;;21.95;100.00;102161.16;5242087;28;20039;-74
2023/05/20 07:16:59;;;;;;;9.35;4.20;;;;;;;21.90;100.00;102166.41;5241862;28;20028;-74
2023/05/20 07:19:29;;;;;;;6.00;3.75;;;;;;;21.93;100.00;102169.53;5224242;28;20103;-73
2023/05/20 07:22:00;;;;;;;8.57;4.45;;;;;;;22.07;100.00;102164.06;5233960;28;20074;-73
2023/05/20 07:24:30;;;;;;;13.52;4.20;;;;;;;21.98;100.00;102158.81;5242241;28;20402;-73
2023/05/20 07:27:01;;;;;;;13.80;4.47;;;;;;;22.02;100.00;102144.75;5246399;28;20043;-73
2023/05/20 07:29:32;;;;;;;6.80;4.18;;;;;;;22.10;100.00;102148.09;5246713;28;20134;-74
2023/05/20 07:32:04;;;;;;;9.00;4.13;;;;;;;22.24;100.00;102157.16;5246383;28;20032;-74
2023/05/20 07:34:34;;;;;;;8.50;4.72;;;;;;;22.45;100.00;102159.66;5246389;28;20027;-74
2023/05/20 07:37:05;;;;;;;5.57;3.70;;;;;;;22.62;100.00;102159.19;5244071;28;20024;-74
2023/05/20 07:39:35;;;;;;;10.25;3.90;;;;;;;22.73;100.00;102156.63;5244578;28;20078;-73
2023/05/20 07:42:06;;;;;;;12.18;3.92;;;;;;;22.92;100.00;102152.16;5241021;28;20381;-74
2023/05/20 07:44:37;;;;;;;6.78;4.00;;;;;;;22.91;100.00;102145.03;5237078;28;20025;-74
2023/05/20 07:47:08;;;;;;;8.25;3.95;;;;;;;23.00;100.00;102138.25;5226049;28;20017;-75
2023/05/20 07:49:38;;;;;;;8.35;3.80;;;;;;;22.97;98.67;102144.16;5236811;28;20028;-74
2023/05/20 07:52:09;;;;;;;6.28;3.50;;;;;;;23.16;100.00;102138.81;5228475;28;20079;-75
2023/05/20 07:54:40;;;;;;;7.28;3.65;;;;;;;23.15;98.40;102139.88;5229385;28;20110;-73
2023/05/20 07:57:10;;;;;;;8.95;4.43;;;;;;;23.20;100.00;102134.56;5243988;28;20024;-74
2023/05/20 07:59:41;;;;;;;5.97;3.50;;;;;;;23.44;90.99;102135.66;5246258;28;20020;-74
2023/05/20 08:02:11;;;;;;;9.07;4.00;;;;;;;23.50;96.00;102132.91;5232134;28;20025;-74
2023/05/20 08:04:42;;;;;;;10.20;3.50;;;;;;;23.40;89.96;102127.09;5244292;28;20016;-74
2023/05/20 08:07:12;;;;;;;9.73;3.30;;;;;;;22.93;89.07;102133.84;5233656;28;20028;-74
2023/05/20 08:09:43;;;;;;;8.38;3.72;;;;;;;22.92;95.04;102127.53;5243332;28;20036;-74
2023/05/20 08:12:13;;;;;;;9.13;3.83;;;;;;;22.81;97.01;102116.41;5234603;28;20039;-74
2023/05/20 08:14:44;;;;;;;8.25;3.33;;;;;;;22.99;96.80;102108.34;5231541;28;20032;-74
2023/05/20 08:17:14;;;;;;;6.82;3.58;;;;;;;23.41;100.00;102117.81;5244745;28;20027;-74
2023/05/20 08:19:45;;;;;;;6.80;3.55;;;;;;;23.61;91.74;102111.34;5228615;28;20021;-74
2023/05/20 08:22:15;;;;;;;9.45;3.75;;;;;;;23.64;92.44;102111.75;5233582;28;20036;-74
2023/05/20 08:24:46;;;;;;;9.43;3.60;;;;;;;23.74;94.72;102098.38;5244658;28;20024;-74
2023/05/20 08:27:16;;;;;;;8.05;3.70;;;;;;;24.00;86.26;102108.31;5247712;28;20371;-74
2023/05/20 08:29:47;;;;;;;6.80;3.20;;;;;;;23.77;87.17;102102.59;5247364;28;20028;-75
2023/05/20 08:32:17;;;;;;;7.72;2.92;;;;;;;23.95;87.64;102105.41;5245663;28;20032;-75
2023/05/20 08:34:48;;;;;;;7.30;3.30;;;;;;;23.80;87.19;102098.56;5245264;28;20024;-74
2023/05/20 08:37:19;;;;;;;8.30;3.00;;;;;;;23.73;79.61;102098.63;5244024;28;20388;-74
2023/05/20 08:39:49;;;;;;;5.40;3.33;;;;;;;23.10;85.02;102106.84;5241738;28;20025;-74
2023/05/20 08:42:22;;;;;;;6.72;3.10;;;;;;;23.28;85.80;102101.44;5240535;28;20119;-74
2023/05/20 08:44:56;;;;;;;10.85;3.40;;;;;;;23.22;86.25;102097.69;5233977;28;20025;-74
2023/05/20 08:47:26;;;;;;;5.63;3.10;;;;;;;23.00;87.40;102096.38;5242473;28;20024;-74
2023/05/20 08:49:57;;;;;;;8.50;3.03;;;;;;;22.94;84.96;102103.56;5244441;28;20033;-75
2023/05/20 08:52:30;;;;;;;13.75;3.35;;;;;;;23.05;84.04;102096.56;5238382;28;20053;-73
2023/05/20 08:55:01;;;;;;;7.32;2.58;;;;;;;23.22;81.14;102102.34;5243246;28;20020;-74
2023/05/20 08:57:32;;;;;;;13.02;3.05;;;;;;;23.10;83.63;102095.91;5244491;28;20024;-74
2023/05/20 09:00:08;;;;;;;14.88;2.90;;;;;;;22.97;84.39;102086.69;5244661;28;20523;-74
2023/05/20 09:02:38;;;;;;;6.45;2.90;;;;;;;23.02;81.22;102101.63;5245053;28;20378;-74
2023/05/20 09:05:10;;;;;;;5.70;2.90;;;;;;;22.34;86.22;102088.38;5244664;28;20028;-75
2023/05/20 09:07:42;;;;;;;5.00;2.70;;;;;;;22.52;85.07;102093.16;5244753;28;20032;-74
2023/05/20 09:10:13;;;;;;;17.58;3.55;;;;;;;22.62;82.67;102093.53;5244211;28;20109;-74
2023/05/20 09:12:43;;;;;;;10.73;2.90;;;;;;;22.79;85.99;102081.03;5243944;28;20490;-74
2023/05/20 09:15:14;;;;;;;6.68;2.95;;;;;;;23.08;86.88;102076.09;5219285;28;20493;-74
2023/05/20 09:17:48;;;;;;;11.20;3.08;;;;;;;23.26;85.91;102078.94;5243657;28;20028;-75
2023/05/20 09:20:21;;;;;;;10.35;2.67;;;;;;;23.45;79.69;102075.22;5241232;28;20032;-74
2023/05/20 09:22:52;;;;;;;6.38;2.72;;;;;;;23.26;81.21;102062.50;5244106;28;20033;-74
2023/05/20 09:25:22;;;;;;;20.25;3.83;;;;;;;23.13;85.15;102068.06;5243047;28;20024;-74
2023/05/20 09:27:53;;;;;;;19.00;3.47;;;;;;;23.11;85.08;102067.47;5243771;28;20046;-74
2023/05/20 09:30:24;;;;;;;6.72;2.45;;;;;;;23.29;82.06;102048.38;5244106;28;20017;-74
2023/05/20 09:32:57;;;;;;;4.63;2.63;;;;;;;23.47;80.63;102055.81;5244264;28;20035;-74
2023/05/20 09:35:27;;;;;;;10.68;2.90;;;;;;;23.62;82.47;102064.56;5243161;28;20031;-74
2023/05/20 09:37:58;;;;;;;5.97;3.00;;;;;;;23.79;78.71;102053.88;5243655;28;20396;-74
2023/05/20 09:40:29;;;;;;;11.13;3.05;;;;;;;23.71;76.04;102060.50;5236336;28;20021;-74
2023/05/20 09:43:00;;;;;;;9.68;2.90;;;;;;;23.58;74.02;102062.47;5243951;28;20055;-74
2023/05/20 09:45:32;;;;;;;9.05;3.15;;;;;;;23.63;73.50;102057.16;5228631;28;20025;-74
2023/05/20 09:48:04;;;;;;;5.30;2.58;;;;;;;23.25;76.49;102047.16;5244843;28;20035;-74
2023/05/20 09:50:35;;;;;;;9.85;3.97;;;;;;;23.43;81.31;102036.25;5243687;28;20048;-74
2023/05/20 09:53:07;;;;;;;6.65;2.70;;;;;;;23.55;79.78;102044.59;5240099;28;20028;-75
2023/05/20 09:55:38;;;;;;;11.38;3.53;;;;;;;23.79;78.72;102037.44;5241917;28;20029;-74
2023/05/20 09:58:11;;;;;;;9.02;3.40;;;;;;;23.61;75.02;102040.13;5230368;28;20036;-74
2023/05/20 10:00:43;;;;;;;5.78;2.90;;;;;;;23.60;76.55;102028.34;5243066;28;20063;-74
2023/05/20 10:03:13;;;;;;;9.75;2.30;;;;;;;23.55;76.01;102033.66;5243545;28;20454;-74
2023/05/20 10:05:54;;;;;;;6.65;2.90;;;;;;;23.87;79.52;102028.94;5242569;28;20107;-74
2023/05/20 10:08:31;;;;;;;6.90;3.47;;;;;;;24.17;78.89;102034.53;5243511;28;20050;-74
2023/05/20 10:11:18;;;;;;;6.90;2.95;;;;;;;24.25;75.05;102034.22;5242855;28;20028;-74
2023/05/20 10:14:04;;;;;;;5.45;2.97;;;;;;;24.32;80.25;102022.34;5231550;28;20107;-74
2023/05/20 10:16:46;;;;;;;9.57;3.20;;;;;;;24.27;74.50;102032.09;5242473;28;20162;-74
2023/05/20 10:19:34;;;;;;;6.90;3.40;;;;;;;23.89;78.49;102020.50;5243336;28;20036;-74
2023/05/20 10:22:07;;;;;;;7.75;3.00;;;;;;;23.88;85.43;102008.69;5232787;28;20473;-74
2023/05/20 10:24:41;;;;;;;6.32;3.33;;;;;;;23.98;80.87;102014.47;5240738;28;20032;-74
2023/05/20 10:27:14;;;;;;;3.97;2.80;;;;;;;23.65;74.90;102019.47;5242939;28;20121;-74
2023/05/20 10:29:45;;;;;;;6.15;2.67;;;;;;;23.83;83.64;102011.28;5242508;28;20425;-74
2023/05/20 10:32:37;;;;;;;6.63;3.30;;;;;;;23.97;82.60;102004.59;5243226;28;20028;-75
2023/05/20 10:35:08;;;;;;;6.60;2.88;;;;;;;24.10;79.58;102010.97;5242937;28;20067;-74
2023/05/20 10:37:42;;;;;;;8.65;3.22;;;;;;;24.03;76.16;102017.38;5237119;28;20060;-74
2023/05/20 10:40:14;;;;;;;7.68;3.17;;;;;;;23.64;78.44;102002.19;5227437;28;20025;-74
2023/05/20 10:42:46;;;;;;;21.50;3.88;;;;;;;23.42;83.12;101992.66;5229564;28;20029;-74
2023/05/20 10:45:36;;;;;;;9.10;2.97;;;;;;;23.29;82.44;101998.25;5224927;28;20027;-74
2023/05/20 10:48:07;;;;;;;5.65;2.78;;;;;;;23.27;80.57;101993.84;5243594;28;20032;-74
2023/05/20 10:50:39;;;;;;;7.20;2.72;;;;;;;23.19;81.92;101988.66;5242340;28;20481;-73
2023/05/20 10:53:12;;;;;;;7.47;2.95;;;;;;;23.24;84.08;101980.63;5238722;28;20044;-74
2023/05/20 10:55:50;;;;;;;6.40;3.03;;;;;;;22.96;87.57;101988.41;5241558;28;20065;-74
2023/05/20 10:58:23;;;;;;;10.05;3.72;;;;;;;23.04;86.04;101987.28;5243220;28;20133;-74
2023/05/20 11:00:54;;;;;;;11.98;2.97;;;;;;;23.40;92.74;101979.22;5242651;28;20059;-74
2023/05/20 11:03:25;;;;;;;7.03;3.45;;;;;;;23.59;82.78;101990.19;5238284;28;20029;-74
2023/05/20 11:05:56;;;;;;;8.90;3.15;;;;;;;23.49;85.74;101975.13;5232805;28;20077;-74
2023/05/20 11:08:30;;;;;;;88.57;8.52;;;;;;;23.38;86.10;101978.59;5242528;28;20120;-74
2023/05/20 11:11:01;;;;;;;244.80;15.93;;;;;;;23.42;87.55;101982.56;5242705;28;20025;-73
2023/05/20 11:13:31;;;;;;;7.40;2.92;;;;;;;23.49;85.98;101968.78;5242627;28;20028;-74
2023/05/20 11:16:03;;;;;;;4.80;3.30;;;;;;;23.67;93.81;101962.56;5228501;28;20025;-74
2023/05/20 11:18:34;;;;;;;25.90;3.65;;;;;;;23.86;87.52;101966.16;5242791;28;20032;-74
2023/05/20 11:21:04;;;;;;;14.50;3.95;;;;;;;24.00;88.71;101960.28;5239827;28;20024;-74
2023/05/20 11:23:36;;;;;;;7.30;2.80;;;;;;;24.10;87.43;101965.25;5231498;28;20595;-74
2023/05/20 11:26:06;;;;;;;10.98;2.95;;;;;;;23.82;85.68;101956.72;5241194;28;20029;-74
2023/05/20 11:28:37;;;;;;;10.93;3.60;;;;;;;23.83;88.65;101953.72;5242772;28;20558;-74
2023/05/20 11:31:08;;;;;;;9.30;3.00;;;;;;;23.62;81.55;101970.56;5237570;28;20064;-74
2023/05/20 11:33:41;;;;;;;140.45;9.90;;;;;;;23.57;90.70;101967.69;5221543;28;20029;-74